createdAt,value
2022-11-12T00:00:40.638Z,1022.79
2022-11-12T00:01:41.515Z,1022.80
2022-11-12T00:02:41.032Z,1022.77
2022-11-12T00:03:41.206Z,1022.85
2022-11-12T00:04:41.945Z,1022.90
2022-11-12T00:05:41.597Z,1022.90
2022-11-12T00:06:41.887Z,1022.94
2022-11-12T00:07:42.441Z,1022.88
2022-11-12T00:08:42.078Z,1022.94
2022-11-12T00:09:42.212Z,1022.98
2022-11-12T00:10:43.388Z,1022.98
2022-11-12T00:11:42.513Z,1023.01
2022-11-12T00:12:42.661Z,1022.98
2022-11-12T00:13:42.829Z,1023.00
2022-11-12T00:14:43.942Z,1023.11
2022-11-12T00:15:43.180Z,1023.16
2022-11-12T00:16:43.357Z,1023.13
2022-11-12T00:17:43.964Z,1023.15
2022-11-12T00:18:43.737Z,1023.17
2022-11-12T00:19:43.908Z,1023.10
2022-11-12T00:20:44.095Z,1023.15
2022-11-12T00:21:44.252Z,1023.21
2022-11-12T00:22:44.493Z,1023.28
2022-11-12T00:23:44.642Z,1023.26
2022-11-12T00:24:45.449Z,1023.35
2022-11-12T00:25:44.952Z,1023.43
2022-11-12T00:26:45.074Z,1023.42
2022-11-12T00:27:45.947Z,1023.44
2022-11-12T00:28:45.453Z,1023.49
2022-11-12T00:29:45.620Z,1023.54
2022-11-12T00:30:45.736Z,1023.54
2022-11-12T00:31:45.908Z,1023.57
2022-11-12T00:32:46.952Z,1023.61
2022-11-12T00:33:46.195Z,1023.59
2022-11-12T00:34:46.332Z,1023.65
2022-11-12T00:35:46.488Z,1023.63
2022-11-12T00:36:46.625Z,1023.62
2022-11-12T00:37:46.767Z,1023.67
2022-11-12T00:38:46.997Z,1023.66
2022-11-12T00:39:47.948Z,1023.72
2022-11-12T00:40:47.335Z,1023.75
2022-11-12T00:41:47.494Z,1023.77
2022-11-12T00:42:47.643Z,1023.80
2022-11-12T00:43:47.820Z,1023.80
2022-11-12T00:44:47.967Z,1023.83
2022-11-12T00:45:48.137Z,1023.80
2022-11-12T00:46:48.313Z,1023.83
2022-11-12T00:47:48.444Z,1023.94
2022-11-12T00:48:48.570Z,1023.94
2022-11-12T00:49:48.717Z,1023.96
2022-11-12T00:50:48.855Z,1024.02
2022-11-12T00:51:49.018Z,1023.99
2022-11-12T00:52:49.153Z,1024.08
2022-11-12T00:53:49.325Z,1024.14
2022-11-12T00:54:49.581Z,1024.11
2022-11-12T00:55:49.590Z,1024.24
2022-11-12T00:56:50.455Z,1024.24
2022-11-12T00:57:49.962Z,1024.23
2022-11-12T00:58:50.127Z,1024.22
2022-11-12T00:59:50.307Z,1024.29
2022-11-12T01:00:50.469Z,1024.33
2022-11-12T01:01:50.674Z,1024.31
2022-11-12T01:02:51.576Z,1024.28
2022-11-12T01:03:52.057Z,1024.30
2022-11-12T01:04:51.956Z,1024.34
2022-11-12T01:05:51.439Z,1024.32
2022-11-12T01:06:51.606Z,1024.33
2022-11-12T01:07:55.959Z,1024.35
2022-11-12T01:08:52.907Z,1024.30
2022-11-12T01:09:53.046Z,1024.36
2022-11-12T01:10:52.312Z,1024.35
2022-11-12T01:11:52.450Z,1024.45
2022-11-12T01:12:52.587Z,1024.39
2022-11-12T01:13:53.455Z,1024.42
2022-11-12T01:14:52.939Z,1024.38
2022-11-12T01:15:53.094Z,1024.46
2022-11-12T01:16:53.211Z,1024.51
2022-11-12T01:17:53.338Z,1024.49
2022-11-12T01:18:53.477Z,1024.48
2022-11-12T01:19:53.719Z,1024.53
2022-11-12T01:20:53.871Z,1024.54
2022-11-12T01:21:53.995Z,1024.56
2022-11-12T01:22:54.126Z,1024.52
2022-11-12T01:23:54.962Z,1024.52
2022-11-12T01:24:54.564Z,1024.64
2022-11-12T01:25:54.784Z,1024.54
2022-11-12T01:26:54.898Z,1024.56
2022-11-12T01:27:55.028Z,1024.58
2022-11-12T01:28:55.153Z,1024.55
2022-11-12T01:29:55.330Z,1024.58
2022-11-12T01:30:56.475Z,1024.62
2022-11-12T01:31:55.704Z,1024.61
2022-11-12T01:32:55.859Z,1024.61
2022-11-12T01:33:55.998Z,1024.62
2022-11-12T01:34:56.473Z,1024.56
2022-11-12T01:35:56.346Z,1024.58
2022-11-12T01:36:57.467Z,1024.59
2022-11-12T01:37:56.723Z,1024.56
2022-11-12T01:38:56.867Z,1024.59
2022-11-12T01:39:57.486Z,1024.56
2022-11-12T01:40:58.048Z,1024.49
2022-11-12T01:41:57.456Z,1024.51
2022-11-12T01:42:57.618Z,1024.55
2022-11-12T01:43:57.767Z,1024.50
2022-11-12T01:44:57.940Z,1024.55
2022-11-12T01:45:58.104Z,1024.55
2022-11-12T01:46:58.289Z,1024.55
2022-11-12T01:47:58.459Z,1024.57
2022-11-12T01:48:58.634Z,1024.59
2022-11-12T01:49:59.467Z,1024.63
2022-11-12T01:50:58.988Z,1024.63
2022-11-12T01:51:59.207Z,1024.64
2022-11-12T01:52:59.378Z,1024.63
2022-11-12T01:53:59.562Z,1024.65
2022-11-12T01:54:59.729Z,1024.60
2022-11-12T01:55:59.890Z,1024.73
2022-11-12T01:57:00.139Z,1024.66
2022-11-12T01:58:00.974Z,1024.66
2022-11-12T01:59:00.995Z,1024.66
2022-11-12T02:00:00.491Z,1024.70
2022-11-12T02:01:00.693Z,1024.67
2022-11-12T02:02:00.887Z,1024.63
2022-11-12T02:03:01.486Z,1024.72
2022-11-12T02:04:01.246Z,1024.69
2022-11-12T02:05:01.422Z,1024.63
2022-11-12T02:06:02.461Z,1024.65
2022-11-12T02:07:03.499Z,1024.68
2022-11-12T02:08:01.907Z,1024.68
2022-11-12T02:09:02.063Z,1024.65
2022-11-12T02:10:02.481Z,1024.61
2022-11-12T02:11:02.377Z,1024.62
2022-11-12T02:12:02.653Z,1024.61
2022-11-12T02:13:02.680Z,1024.64
2022-11-12T02:14:02.847Z,1024.64
2022-11-12T02:15:03.042Z,1024.67
2022-11-12T02:16:03.205Z,1024.63
2022-11-12T02:17:03.969Z,1024.64
2022-11-12T02:18:03.597Z,1024.67
2022-11-12T02:19:04.467Z,1024.69
2022-11-12T02:20:03.894Z,1024.71
2022-11-12T02:21:04.091Z,1024.68
2022-11-12T02:22:04.227Z,1024.70
2022-11-12T02:23:04.979Z,1024.72
2022-11-12T02:24:04.592Z,1024.75
2022-11-12T02:25:04.735Z,1024.69
2022-11-12T02:26:04.923Z,1024.66
2022-11-12T02:27:06.073Z,1024.78
2022-11-12T02:28:05.323Z,1024.74
2022-11-12T02:29:05.495Z,1024.76
2022-11-12T02:30:05.631Z,1024.77
2022-11-12T02:31:05.985Z,1024.74
2022-11-12T02:32:06.973Z,1024.70
2022-11-12T02:33:06.208Z,1024.75
2022-11-12T02:34:06.370Z,1024.72
2022-11-12T02:35:07.477Z,1024.72
2022-11-12T02:36:07.481Z,1024.74
2022-11-12T02:37:06.856Z,1024.75
2022-11-12T02:38:07.049Z,1024.73
2022-11-12T02:39:07.191Z,1024.74
2022-11-12T02:40:07.974Z,1024.75
2022-11-12T02:41:07.977Z,1024.79
2022-11-12T02:42:07.694Z,1024.76
2022-11-12T02:43:08.041Z,1024.83
2022-11-12T02:44:08.186Z,1024.79
2022-11-12T02:45:08.297Z,1024.83
2022-11-12T02:46:08.539Z,1024.84
2022-11-12T02:47:08.797Z,1024.81
2022-11-12T02:48:08.915Z,1024.88
2022-11-12T02:49:09.489Z,1024.93
2022-11-12T02:50:09.388Z,1024.90
2022-11-12T02:51:10.477Z,1024.96
2022-11-12T02:52:09.714Z,1024.96
2022-11-12T02:53:09.833Z,1024.91
2022-11-12T02:54:09.965Z,1024.88
2022-11-12T02:55:10.119Z,1024.89
2022-11-12T02:56:10.244Z,1024.94
2022-11-12T02:57:10.381Z,1024.95
2022-11-12T02:58:10.647Z,1024.91
2022-11-12T02:59:11.501Z,1024.90
2022-11-12T03:00:11.477Z,1024.90
2022-11-12T03:01:11.164Z,1024.99
2022-11-12T03:02:11.306Z,1024.93
2022-11-12T03:03:11.489Z,1024.97
2022-11-12T03:04:11.638Z,1024.95
2022-11-12T03:05:11.790Z,1024.96
2022-11-12T03:06:11.927Z,1024.96
2022-11-12T03:07:12.116Z,1024.94
2022-11-12T03:08:12.495Z,1024.88
2022-11-12T03:09:12.985Z,1024.88
2022-11-12T03:10:12.621Z,1024.85
2022-11-12T03:11:13.484Z,1024.83
2022-11-12T03:12:12.972Z,1024.82
2022-11-12T03:13:13.238Z,1024.79
2022-11-12T03:14:13.981Z,1024.83
2022-11-12T03:15:13.507Z,1024.80
2022-11-12T03:16:13.666Z,1024.80
2022-11-12T03:17:13.825Z,1024.81
2022-11-12T03:18:14.027Z,1024.88
2022-11-12T03:19:14.202Z,1024.87
2022-11-12T03:20:14.350Z,1024.87
2022-11-12T03:21:14.543Z,1024.92
2022-11-12T03:22:14.723Z,1024.99
2022-11-12T03:23:14.892Z,1024.95
2022-11-12T03:24:15.044Z,1024.93
2022-11-12T03:25:15.202Z,1024.94
2022-11-12T03:26:15.370Z,1024.92
2022-11-12T03:27:15.537Z,1024.95
2022-11-12T03:28:16.574Z,1024.95
2022-11-12T03:29:15.918Z,1024.98
2022-11-12T03:30:16.989Z,1025.01
2022-11-12T03:31:16.495Z,1025.03
2022-11-12T03:32:16.366Z,1024.95
2022-11-12T03:33:16.627Z,1025.01
2022-11-12T03:34:16.752Z,1025.03
2022-11-12T03:35:16.875Z,1025.00
2022-11-12T03:36:16.999Z,1024.98
2022-11-12T03:37:17.144Z,1024.94
2022-11-12T03:38:17.266Z,1024.88
2022-11-12T03:39:17.420Z,1024.91
2022-11-12T03:40:17.564Z,1024.93
2022-11-12T03:41:17.704Z,1024.93
2022-11-12T03:42:17.849Z,1024.89
2022-11-12T03:43:17.983Z,1024.95
2022-11-12T03:44:18.210Z,1024.95
2022-11-12T03:45:18.361Z,1024.89
2022-11-12T03:46:19.498Z,1024.90
2022-11-12T03:47:19.011Z,1024.91
2022-11-12T03:48:18.772Z,1024.87
2022-11-12T03:49:19.493Z,1024.92
2022-11-12T03:50:19.136Z,1024.84
2022-11-12T03:51:19.500Z,1024.92
2022-11-12T03:52:19.517Z,1024.87
2022-11-12T03:53:19.668Z,1024.84
2022-11-12T03:54:19.833Z,1024.75
2022-11-12T03:55:19.990Z,1024.80
2022-11-12T03:56:20.136Z,1024.80
2022-11-12T03:57:20.257Z,1024.82
2022-11-12T03:58:20.997Z,1024.77
2022-11-12T03:59:20.682Z,1024.80
2022-11-12T04:00:21.005Z,1024.84
2022-11-12T04:01:21.064Z,1024.84
2022-11-12T04:02:22.001Z,1024.82
2022-11-12T04:03:21.364Z,1024.77
2022-11-12T04:04:22.493Z,1024.77
2022-11-12T04:05:22.008Z,1024.81
2022-11-12T04:06:22.011Z,1024.83
2022-11-12T04:07:22.034Z,1024.78
2022-11-12T04:08:22.186Z,1024.82
2022-11-12T04:09:22.508Z,1024.82
2022-11-12T04:10:22.545Z,1024.80
2022-11-12T04:11:23.494Z,1024.75
2022-11-12T04:12:22.855Z,1024.78
2022-11-12T04:13:23.021Z,1024.78
2022-11-12T04:14:24.083Z,1024.77
2022-11-12T04:15:23.351Z,1024.78
2022-11-12T04:16:23.504Z,1024.81
2022-11-12T04:17:24.501Z,1024.76
2022-11-12T04:18:24.297Z,1024.80
2022-11-12T04:19:25.127Z,1024.82
2022-11-12T04:20:24.242Z,1024.79
2022-11-12T04:21:24.996Z,1024.80
2022-11-12T04:22:25.502Z,1024.75
2022-11-12T04:23:24.756Z,1024.76
2022-11-12T04:24:24.907Z,1024.86
2022-11-12T04:25:25.038Z,1024.76
2022-11-12T04:26:26.157Z,1024.81
2022-11-12T04:27:25.414Z,1024.85
2022-11-12T04:28:25.929Z,1024.74
2022-11-12T04:29:26.101Z,1024.76
2022-11-12T04:30:25.967Z,1024.79
2022-11-12T04:31:26.104Z,1024.78
2022-11-12T04:32:26.249Z,1024.75
2022-11-12T04:33:26.398Z,1024.69
2022-11-12T04:34:26.570Z,1024.71
2022-11-12T04:35:27.514Z,1024.73
2022-11-12T04:36:27.500Z,1024.76
2022-11-12T04:37:27.997Z,1024.72
2022-11-12T04:38:28.038Z,1024.67
2022-11-12T04:39:27.407Z,1024.64
2022-11-12T04:40:27.549Z,1024.65
2022-11-12T04:41:27.679Z,1024.68
2022-11-12T04:42:28.508Z,1024.64
2022-11-12T04:43:27.993Z,1024.61
2022-11-12T04:44:28.141Z,1024.63
2022-11-12T04:45:28.376Z,1024.59
2022-11-12T04:46:29.010Z,1024.61
2022-11-12T04:47:29.502Z,1024.65
2022-11-12T04:48:29.438Z,1024.62
2022-11-12T04:49:29.007Z,1024.70
2022-11-12T04:50:29.185Z,1024.66
2022-11-12T04:51:29.334Z,1024.63
2022-11-12T04:52:30.031Z,1024.59
2022-11-12T04:53:29.666Z,1024.56
2022-11-12T04:54:30.508Z,1024.55
2022-11-12T04:55:30.021Z,1024.50
2022-11-12T04:56:30.164Z,1024.51
2022-11-12T04:57:30.306Z,1024.43
2022-11-12T04:58:30.586Z,1024.53
2022-11-12T04:59:30.686Z,1024.54
2022-11-12T05:00:30.946Z,1024.52
2022-11-12T05:01:31.019Z,1024.54
2022-11-12T05:02:31.215Z,1024.54
2022-11-12T05:03:31.418Z,1024.49
2022-11-12T05:04:32.019Z,1024.50
2022-11-12T05:05:34.105Z,1024.43
2022-11-12T05:06:33.052Z,1024.51
2022-11-12T05:07:32.187Z,1024.46
2022-11-12T05:08:32.356Z,1024.46
2022-11-12T05:09:32.525Z,1024.46
2022-11-12T05:10:33.507Z,1024.43
2022-11-12T05:11:33.521Z,1024.42
2022-11-12T05:12:33.056Z,1024.44
2022-11-12T05:13:34.007Z,1024.45
2022-11-12T05:14:33.397Z,1024.38
2022-11-12T05:15:34.112Z,1024.43
2022-11-12T05:16:33.726Z,1024.47
2022-11-12T05:17:33.851Z,1024.44
2022-11-12T05:18:34.512Z,1024.42
2022-11-12T05:20:07.525Z,1024.49
2022-11-12T05:20:34.274Z,1024.44
2022-11-12T05:21:36.949Z,1024.47
2022-11-12T05:22:45.636Z,1024.47
2022-11-12T05:23:36.841Z,1024.51
2022-11-12T05:24:41.851Z,1024.48
2022-11-12T05:25:37.293Z,1024.46
2022-11-12T05:26:35.502Z,1024.47
2022-11-12T05:27:35.636Z,1024.45
2022-11-12T05:28:35.774Z,1024.44
2022-11-12T05:29:35.921Z,1024.45
2022-11-12T05:30:37.158Z,1024.43
2022-11-12T05:31:37.053Z,1024.41
2022-11-12T05:32:36.426Z,1024.46
2022-11-12T05:33:36.577Z,1024.45
2022-11-12T05:34:36.699Z,1024.49
2022-11-12T05:35:36.845Z,1024.51
2022-11-12T05:36:37.551Z,1024.49
2022-11-12T05:37:37.188Z,1024.53
2022-11-12T05:38:37.563Z,1024.47
2022-11-12T05:39:37.582Z,1024.54
2022-11-12T05:40:37.691Z,1024.51
2022-11-12T05:42:05.895Z,1024.52
2022-11-12T05:42:40.037Z,1024.47
2022-11-12T05:43:38.223Z,1024.48
2022-11-12T05:44:38.348Z,1024.50
2022-11-12T05:45:38.486Z,1024.49
2022-11-12T05:46:38.695Z,1024.44
2022-11-12T05:47:39.065Z,1024.43
2022-11-12T05:48:39.550Z,1024.50
2022-11-12T05:49:39.173Z,1024.46
2022-11-12T05:51:06.207Z,1024.48
2022-11-12T05:51:41.510Z,1024.50
2022-11-12T05:52:39.777Z,1024.49
2022-11-12T05:53:39.922Z,1024.54
2022-11-12T05:54:40.083Z,1024.47
2022-11-12T05:55:40.570Z,1024.41
2022-11-12T05:56:40.450Z,1024.41
2022-11-12T05:57:40.639Z,1024.44
2022-11-12T05:58:40.804Z,1024.41
2022-11-12T05:59:40.965Z,1024.43
2022-11-12T06:00:41.104Z,1024.40
2022-11-12T06:01:41.247Z,1024.35
2022-11-12T06:02:43.216Z,1024.32
2022-11-12T06:03:42.538Z,1024.40
2022-11-12T06:04:41.799Z,1024.39
2022-11-12T06:05:41.933Z,1024.31
2022-11-12T06:06:42.118Z,1024.32
2022-11-12T06:07:42.317Z,1024.33
2022-11-12T06:08:42.448Z,1024.33
2022-11-12T06:09:43.072Z,1024.35
2022-11-12T06:10:42.817Z,1024.37
2022-11-12T06:11:42.975Z,1024.39
2022-11-12T06:12:44.061Z,1024.41
2022-11-12T06:13:43.300Z,1024.33
2022-11-12T06:14:43.453Z,1024.34
2022-11-12T06:15:43.634Z,1024.37
2022-11-12T06:16:43.812Z,1024.30
2022-11-12T06:17:44.011Z,1024.33
2022-11-12T06:18:44.246Z,1024.36
2022-11-12T06:19:44.282Z,1024.41
2022-11-12T06:20:44.466Z,1024.39
2022-11-12T06:21:45.653Z,1024.45
2022-11-12T06:22:44.859Z,1024.41
2022-11-12T06:23:45.564Z,1024.45
2022-11-12T06:24:46.066Z,1024.45
2022-11-12T06:25:45.575Z,1024.50
2022-11-12T06:26:45.586Z,1024.52
2022-11-12T06:27:45.746Z,1024.42
2022-11-12T06:28:45.958Z,1024.44
2022-11-12T06:29:46.140Z,1024.46
2022-11-12T06:30:47.327Z,1024.48
2022-11-12T06:31:46.442Z,1024.51
2022-11-12T06:32:46.589Z,1024.43
2022-11-12T06:33:47.655Z,1024.45
2022-11-12T06:34:46.876Z,1024.39
2022-11-12T06:35:47.600Z,1024.44
2022-11-12T06:36:47.227Z,1024.41
2022-11-12T06:37:47.390Z,1024.46
2022-11-12T06:38:47.544Z,1024.45
2022-11-12T06:39:48.568Z,1024.45
2022-11-12T06:40:48.587Z,1024.48
2022-11-12T06:41:48.081Z,1024.45
2022-11-12T06:42:48.221Z,1024.52
2022-11-12T06:43:48.369Z,1024.50
2022-11-12T06:44:48.516Z,1024.56
2022-11-12T06:45:48.682Z,1024.49
2022-11-12T06:46:48.851Z,1024.49
2022-11-12T06:47:49.077Z,1024.52
2022-11-12T06:48:50.158Z,1024.47
2022-11-12T06:49:49.416Z,1024.48
2022-11-12T06:50:50.069Z,1024.42
2022-11-12T06:51:49.691Z,1024.44
2022-11-12T06:52:49.813Z,1024.44
2022-11-12T06:53:50.569Z,1024.46
2022-11-12T06:54:50.191Z,1024.46
2022-11-12T06:55:50.316Z,1024.40
2022-11-12T06:56:50.487Z,1024.42
2022-11-12T06:57:50.618Z,1024.47
2022-11-12T06:58:51.603Z,1024.50
2022-11-12T06:59:50.949Z,1024.52
2022-11-12T07:00:51.097Z,1024.47
2022-11-12T07:01:51.365Z,1024.55
2022-11-12T07:02:51.426Z,1024.54
2022-11-12T07:03:51.582Z,1024.48
2022-11-12T07:04:51.841Z,1024.49
2022-11-12T07:05:51.972Z,1024.51
2022-11-12T07:06:53.199Z,1024.51
2022-11-12T07:07:52.326Z,1024.49
2022-11-12T07:08:53.078Z,1024.56
2022-11-12T07:09:52.710Z,1024.56
2022-11-12T07:10:53.573Z,1024.59
2022-11-12T07:11:54.085Z,1024.56
2022-11-12T07:12:54.072Z,1024.57
2022-11-12T07:13:54.077Z,1024.56
2022-11-12T07:14:54.095Z,1024.62
2022-11-12T07:15:54.086Z,1024.56
2022-11-12T07:16:53.866Z,1024.49
2022-11-12T07:17:53.981Z,1024.50
2022-11-12T07:18:54.586Z,1024.47
2022-11-12T07:19:57.193Z,1024.47
2022-11-12T07:20:56.073Z,1024.50
2022-11-12T07:21:55.576Z,1024.53
2022-11-12T07:22:55.590Z,1024.51
2022-11-12T07:23:54.954Z,1024.49
2022-11-12T07:24:55.118Z,1024.50
2022-11-12T07:25:55.585Z,1024.53
2022-11-12T07:26:55.456Z,1024.51
2022-11-12T07:27:55.589Z,1024.48
2022-11-12T07:28:56.085Z,1024.55
2022-11-12T07:29:55.993Z,1024.53
2022-11-12T07:30:56.140Z,1024.53
2022-11-12T07:31:57.096Z,1024.51
2022-11-12T07:32:56.472Z,1024.48
2022-11-12T07:33:57.086Z,1024.53
2022-11-12T07:34:56.936Z,1024.55
2022-11-12T07:35:57.581Z,1024.47
2022-11-12T07:36:57.214Z,1024.49
2022-11-12T07:37:59.757Z,1024.56
2022-11-12T07:38:58.597Z,1024.53
2022-11-12T07:39:57.734Z,1024.54
2022-11-12T07:40:57.906Z,1024.51
2022-11-12T07:41:58.074Z,1024.53
2022-11-12T07:42:58.225Z,1024.49
2022-11-12T07:43:58.387Z,1024.49
2022-11-12T07:44:58.577Z,1024.49
2022-11-12T07:45:58.732Z,1024.45
2022-11-12T07:46:59.579Z,1024.49
2022-11-12T07:47:59.111Z,1024.54
2022-11-12T07:48:59.313Z,1024.49
2022-11-12T07:49:59.597Z,1024.54
2022-11-12T07:50:59.635Z,1024.47
2022-11-12T07:52:00.098Z,1024.50
2022-11-12T07:53:00.015Z,1024.51
2022-11-12T07:54:00.595Z,1024.46
2022-11-12T07:55:01.087Z,1024.51
2022-11-12T07:56:00.579Z,1024.51
2022-11-12T07:57:00.757Z,1024.51
2022-11-12T07:58:00.940Z,1024.44
2022-11-12T07:59:01.112Z,1024.42
2022-11-12T08:00:02.089Z,1024.36
2022-11-12T08:01:02.083Z,1024.30
2022-11-12T08:02:02.094Z,1024.27
2022-11-12T08:03:01.852Z,1024.26
2022-11-12T08:04:02.583Z,1024.25
2022-11-12T08:05:02.341Z,1024.25
2022-11-12T08:06:03.157Z,1024.23
2022-11-12T08:07:02.606Z,1024.17
2022-11-12T08:08:03.845Z,1024.15
2022-11-12T08:09:02.914Z,1024.08
2022-11-12T08:10:03.078Z,1024.11
2022-11-12T08:11:03.222Z,1024.03
2022-11-12T08:12:03.396Z,1024.03
2022-11-12T08:13:03.549Z,1024.03
2022-11-12T08:14:04.584Z,1023.98
2022-11-12T08:15:04.099Z,1023.99
2022-11-12T08:16:04.116Z,1023.91
2022-11-12T08:17:04.258Z,1023.88
2022-11-12T08:18:05.553Z,1023.99
2022-11-12T08:19:04.546Z,1023.90
2022-11-12T08:20:05.098Z,1023.87
2022-11-12T08:21:05.188Z,1023.76
2022-11-12T08:22:05.584Z,1023.78
2022-11-12T08:23:05.232Z,1023.63
2022-11-12T08:24:06.384Z,1023.33
2022-11-12T08:25:06.087Z,1022.71
2022-11-12T08:26:06.586Z,1022.17
2022-11-12T08:27:05.844Z,1021.66
2022-11-12T08:28:06.588Z,1021.20
2022-11-12T08:29:08.704Z,1020.84
2022-11-12T08:30:08.095Z,1020.59
2022-11-12T08:31:07.588Z,1020.42
2022-11-12T08:32:06.731Z,1020.40
2022-11-12T08:33:06.927Z,1020.41
2022-11-12T08:34:07.076Z,1020.21
2022-11-12T08:35:08.090Z,1020.11
2022-11-12T08:36:07.461Z,1019.92
2022-11-12T08:37:07.675Z,1019.81
2022-11-12T08:38:07.832Z,1019.60
2022-11-12T08:39:08.012Z,1019.53
2022-11-12T08:40:08.179Z,1019.39
2022-11-12T08:41:09.094Z,1019.23
2022-11-12T08:42:08.473Z,1019.17
2022-11-12T08:43:08.633Z,1018.93
2022-11-12T08:44:09.086Z,1018.60
2022-11-12T08:45:09.102Z,1018.35
2022-11-12T08:46:09.120Z,1018.19
2022-11-12T08:47:10.093Z,1018.20
2022-11-12T08:48:10.108Z,1017.93
2022-11-12T08:49:10.107Z,1017.63
2022-11-12T08:50:10.109Z,1017.39
2022-11-12T08:51:10.592Z,1017.35
2022-11-12T08:52:10.288Z,1017.28
2022-11-12T08:53:11.096Z,1017.31
2022-11-12T08:54:11.099Z,1017.20
2022-11-12T08:55:10.769Z,1017.03
2022-11-12T08:56:11.622Z,1016.77
2022-11-12T08:57:11.146Z,1016.65
2022-11-12T08:58:11.329Z,1016.53
2022-11-12T08:59:11.491Z,1016.44
2022-11-12T09:00:11.645Z,1016.22
2022-11-12T09:01:12.712Z,1016.08
2022-11-12T09:02:12.608Z,1016.06
2022-11-12T09:03:13.101Z,1015.96
2022-11-12T09:04:12.322Z,1015.85
2022-11-12T09:05:12.474Z,1015.71
2022-11-12T09:06:13.629Z,1015.65
2022-11-12T09:07:43.395Z,1015.67
2022-11-12T09:08:15.654Z,1015.51
2022-11-12T09:09:13.136Z,1015.48
2022-11-12T09:10:13.358Z,1015.40
2022-11-12T09:11:14.127Z,1015.48
2022-11-12T09:12:19.278Z,1015.46
2022-11-12T09:13:15.956Z,1015.52
2022-11-12T09:14:14.324Z,1015.62
2022-11-12T09:16:16.624Z,1015.63
2022-11-12T09:17:14.738Z,1015.74
2022-11-12T09:18:15.607Z,1015.73
2022-11-12T09:19:15.121Z,1015.77
2022-11-12T09:20:15.275Z,1015.76
2022-11-12T09:21:15.416Z,1015.73
2022-11-12T09:22:15.619Z,1015.75
2022-11-12T09:23:16.700Z,1015.57
2022-11-12T09:24:15.961Z,1015.60
2022-11-12T09:25:16.637Z,1015.56
2022-11-12T09:26:16.275Z,1015.51
2022-11-12T09:27:16.439Z,1015.37
2022-11-12T09:28:16.595Z,1015.41
2022-11-12T09:29:17.124Z,1015.43
2022-11-12T09:30:17.615Z,1015.41
2022-11-12T09:31:17.621Z,1015.38
2022-11-12T09:32:17.276Z,1015.34
2022-11-12T09:33:18.119Z,1015.32
2022-11-12T09:34:18.614Z,1015.35
2022-11-12T09:35:17.867Z,1015.38
2022-11-12T09:36:18.028Z,1015.44
2022-11-12T09:37:19.115Z,1015.52
2022-11-12T09:38:18.462Z,1015.62
2022-11-12T09:39:19.122Z,1015.62
2022-11-12T09:40:19.626Z,1015.73
2022-11-12T09:41:19.126Z,1015.70
2022-11-12T09:42:19.624Z,1015.73
2022-11-12T09:43:19.629Z,1015.69
2022-11-12T09:44:19.390Z,1015.60
2022-11-12T09:45:20.116Z,1015.58
2022-11-12T09:46:27.339Z,1015.50
2022-11-12T09:47:22.626Z,1015.38
2022-11-12T09:48:20.095Z,1015.33
2022-11-12T09:49:20.273Z,1015.23
2022-11-12T09:50:21.120Z,1015.13
2022-11-12T09:51:21.119Z,1015.01
2022-11-12T09:52:21.622Z,1014.92
2022-11-12T09:53:21.716Z,1014.86
2022-11-12T09:54:21.136Z,1014.80
2022-11-12T09:55:21.279Z,1014.75
2022-11-12T09:56:21.427Z,1014.67
2022-11-12T09:57:21.575Z,1014.67
2022-11-12T09:58:21.749Z,1014.65
2022-11-12T09:59:21.937Z,1014.57
2022-11-12T10:00:22.110Z,1014.53
2022-11-12T10:01:22.345Z,1014.47
2022-11-12T10:02:23.129Z,1014.39
2022-11-12T10:03:23.133Z,1014.43
2022-11-12T10:04:23.625Z,1014.43
2022-11-12T10:05:23.132Z,1014.41
2022-11-12T10:06:23.303Z,1014.40
2022-11-12T10:07:24.127Z,1014.40
2022-11-12T10:08:23.806Z,1014.39
2022-11-12T10:09:23.879Z,1014.36
2022-11-12T10:10:23.948Z,1014.36
2022-11-12T10:11:24.121Z,1014.34
2022-11-12T10:12:24.297Z,1014.34
2022-11-12T10:13:24.495Z,1014.33
2022-11-12T10:14:25.634Z,1014.29
2022-11-12T10:15:25.634Z,1014.28
2022-11-12T10:16:25.030Z,1014.21
2022-11-12T10:17:25.661Z,1014.24
2022-11-12T10:18:26.457Z,1014.23
2022-11-12T10:19:25.466Z,1014.20
2022-11-12T10:20:25.670Z,1014.20
2022-11-12T10:21:25.899Z,1014.20
2022-11-12T10:22:26.077Z,1014.22
2022-11-12T10:23:26.251Z,1014.23
2022-11-12T10:24:26.526Z,1014.24
2022-11-12T10:25:26.585Z,1014.23
2022-11-12T10:26:26.779Z,1014.24
2022-11-12T10:27:26.956Z,1014.25
2022-11-12T10:28:27.557Z,1014.25
2022-11-12T10:29:27.305Z,1014.32
2022-11-12T10:30:27.495Z,1014.32
2022-11-12T10:31:27.673Z,1014.26
2022-11-12T10:32:27.850Z,1014.25
2022-11-12T10:33:28.060Z,1014.21
2022-11-12T10:34:28.210Z,1014.18
2022-11-12T10:35:29.347Z,1014.20
2022-11-12T10:36:28.489Z,1014.20
2022-11-12T10:37:28.681Z,1014.15
2022-11-12T10:38:29.940Z,1014.26
2022-11-12T10:39:29.242Z,1014.21
2022-11-12T10:40:29.164Z,1014.19
2022-11-12T10:41:30.343Z,1014.14
2022-11-12T10:42:29.472Z,1014.23
2022-11-12T10:43:29.645Z,1014.16
2022-11-12T10:44:30.156Z,1014.21
2022-11-12T10:45:29.961Z,1014.20
2022-11-12T10:46:31.150Z,1014.22
2022-11-12T10:47:30.267Z,1014.19
2022-11-12T10:48:31.471Z,1014.21
2022-11-12T10:49:30.620Z,1014.27
2022-11-12T10:50:30.753Z,1014.23
2022-11-12T10:51:31.641Z,1014.34
2022-11-12T10:52:31.646Z,1014.25
2022-11-12T10:53:32.152Z,1014.32
2022-11-12T10:54:31.538Z,1014.37
2022-11-12T10:55:31.542Z,1014.32
2022-11-12T10:56:31.679Z,1014.40
2022-11-12T10:57:32.645Z,1014.46
2022-11-12T10:58:32.646Z,1014.38
2022-11-12T10:59:32.657Z,1014.45
2022-11-12T11:00:32.302Z,1014.48
2022-11-12T11:01:35.713Z,1014.48
2022-11-12T11:02:33.729Z,1014.49
2022-11-12T11:03:32.864Z,1014.50
2022-11-12T11:04:33.063Z,1014.51
2022-11-12T11:05:33.247Z,1014.55
2022-11-12T11:06:33.420Z,1014.57
2022-11-12T11:07:34.147Z,1014.63
2022-11-12T11:08:36.290Z,1014.71
2022-11-12T11:09:35.070Z,1014.66
2022-11-12T11:10:34.076Z,1014.65
2022-11-12T11:11:35.259Z,1014.64
2022-11-12T11:12:34.397Z,1014.75
2022-11-12T11:13:34.574Z,1014.77
2022-11-12T11:14:34.730Z,1014.89
2022-11-12T11:15:34.903Z,1015.05
2022-11-12T11:16:35.062Z,1015.08
2022-11-12T11:17:35.241Z,1015.20
2022-11-12T11:18:35.412Z,1015.35
2022-11-12T11:19:35.594Z,1015.37
2022-11-12T11:20:35.750Z,1015.40
2022-11-12T11:21:41.683Z,1015.55
2022-11-12T11:22:38.659Z,1015.62
2022-11-12T11:23:36.264Z,1015.64
2022-11-12T11:24:36.534Z,1015.63
2022-11-12T11:25:37.156Z,1015.68
2022-11-12T11:26:36.794Z,1015.68
2022-11-12T11:27:36.961Z,1015.70
2022-11-12T11:28:37.143Z,1015.78
2022-11-12T11:29:37.311Z,1015.84
2022-11-12T11:30:38.157Z,1015.99
2022-11-12T11:31:37.705Z,1015.90
2022-11-12T11:32:38.662Z,1015.97
2022-11-12T11:33:38.066Z,1015.98
2022-11-12T11:34:38.267Z,1016.03
2022-11-12T11:35:39.162Z,1016.09
2022-11-12T11:36:38.573Z,1016.02
2022-11-12T11:37:38.732Z,1016.10
2022-11-12T11:38:38.886Z,1016.07
2022-11-12T11:39:39.053Z,1016.15
2022-11-12T11:40:39.283Z,1016.16
2022-11-12T11:41:39.429Z,1016.19
2022-11-12T11:42:39.587Z,1016.25
2022-11-12T11:43:39.789Z,1016.23
2022-11-12T11:44:39.965Z,1016.33
2022-11-12T11:45:40.113Z,1016.37
2022-11-12T11:46:40.278Z,1016.44
2022-11-12T11:47:59.881Z,1016.46
2022-11-12T11:48:42.655Z,1016.45
2022-11-12T11:49:40.884Z,1016.47
2022-11-12T11:50:41.046Z,1016.53
2022-11-12T11:51:41.229Z,1016.49
2022-11-12T11:52:41.411Z,1016.54
2022-11-12T11:53:41.578Z,1016.51
2022-11-12T11:54:41.735Z,1016.48
2022-11-12T11:55:42.037Z,1016.54
2022-11-12T11:56:43.071Z,1016.50
2022-11-12T11:57:43.172Z,1016.52
2022-11-12T11:58:42.309Z,1016.59
2022-11-12T11:59:42.470Z,1016.57
2022-11-12T12:00:42.678Z,1016.58
2022-11-12T12:01:43.671Z,1016.64
2022-11-12T12:02:43.047Z,1016.60
2022-11-12T12:03:43.262Z,1016.69
2022-11-12T12:04:43.455Z,1016.71
2022-11-12T12:05:44.172Z,1016.76
2022-11-12T12:06:43.795Z,1016.79
2022-11-12T12:07:43.873Z,1016.79
2022-11-12T12:08:44.038Z,1016.85